W03 weather

Wilson Industrial Air Center Airport
Wilson, North Carolina, United States

Public forecast

Using degrees Fahrenheit for public forecast. Weather courtesy of forecast.io.

Closest aviation weather report (METAR) to Wilson Industrial Air Center Airport

Closest report is Rocky Mount Wilson Regional Airport, 6.4 nm (11.9 km) NE. Retrieved 2020/07/09 01:53 UTC (30 minutes ago):

KRWI 090153Z AUTO 05006KT 10SM CLR 25/23 A2991 RMK AO2 SLP126 T02500228

Closest aviation forecast (TAF) to Wilson Industrial Air Center Airport

Closest forecast is Rocky Mount Wilson Regional Airport, 6.4 nm (11.9 km) NE. Retrieved 2020-07-09 00:24 UTC (2 hours ago):

TAF KRWI 082322Z 0900/0924 07004KT P6SM SCT015 FM090300 03003KT P6SM OVC015 FM090600 02005KT P6SM OVC007 FM091400 02009KT P6SM BKN015 FM091600 02009KT P6SM VCSH BKN050